createdAt,value
2018-04-17T00:00:32.399Z,7.00
2018-04-17T00:03:35.908Z,6.90
2018-04-17T00:06:40.209Z,6.70
2018-04-17T00:09:43.572Z,6.70
2018-04-17T00:12:46.943Z,6.70
2018-04-17T00:15:50.727Z,6.60
2018-04-17T00:18:54.151Z,6.60
2018-04-17T00:21:57.515Z,6.60
2018-04-17T00:25:00.878Z,6.60
2018-04-17T00:28:04.251Z,6.60
2018-04-17T00:31:07.593Z,6.50
2018-04-17T00:34:10.970Z,6.50
2018-04-17T00:37:14.320Z,6.50
2018-04-17T00:40:17.812Z,6.60
2018-04-17T00:43:21.180Z,6.60
2018-04-17T00:46:24.542Z,6.60
2018-04-17T00:49:28.674Z,6.70
2018-04-17T00:52:32.088Z,6.60
2018-04-17T00:55:35.449Z,6.70
2018-04-17T00:58:39.560Z,6.60
2018-04-17T01:01:43.684Z,6.60
2018-04-17T01:04:47.935Z,6.50
2018-04-17T01:07:51.279Z,6.50
2018-04-17T01:10:54.650Z,6.50
2018-04-17T01:13:58.083Z,6.50
2018-04-17T01:17:01.488Z,6.40
2018-04-17T01:20:04.840Z,6.40
2018-04-17T01:23:08.219Z,6.40
2018-04-17T01:26:11.582Z,6.30
2018-04-17T01:29:14.927Z,6.20
2018-04-17T01:32:18.324Z,6.20
2018-04-17T01:35:21.745Z,6.10
2018-04-17T01:38:25.133Z,6.10
2018-04-17T01:41:28.487Z,6.00
2018-04-17T01:44:31.861Z,6.00
2018-04-17T01:47:35.979Z,5.90
2018-04-17T01:50:39.336Z,5.90
2018-04-17T01:53:42.804Z,5.90
2018-04-17T01:56:46.161Z,5.90
2018-04-17T01:59:49.560Z,5.80
2018-04-17T02:02:52.930Z,5.80
2018-04-17T02:05:56.293Z,5.90
2018-04-17T02:08:59.653Z,5.90
2018-04-17T02:12:03.010Z,5.90
2018-04-17T02:15:07.133Z,5.90
2018-04-17T02:18:11.269Z,5.90
2018-04-17T02:21:14.806Z,5.90
2018-04-17T02:24:18.202Z,5.90
2018-04-17T02:27:21.551Z,5.90
2018-04-17T02:30:25.668Z,5.80
2018-04-17T02:33:29.790Z,5.80
2018-04-17T02:36:33.152Z,5.80
2018-04-17T02:39:36.505Z,5.70
2018-04-17T02:42:39.953Z,5.70
2018-04-17T02:45:44.819Z,5.60
2018-04-17T02:48:48.189Z,5.60
2018-04-17T02:51:51.569Z,5.60
2018-04-17T02:54:54.926Z,5.50
2018-04-17T02:57:58.308Z,5.50
2018-04-17T03:01:02.447Z,5.50
2018-04-17T03:04:05.813Z,5.50
2018-04-17T03:07:09.165Z,5.50
2018-04-17T03:10:12.545Z,5.60
2018-04-17T03:13:15.895Z,5.60
2018-04-17T03:16:19.250Z,5.60
2018-04-17T03:19:22.600Z,5.60
2018-04-17T03:22:25.951Z,5.60
2018-04-17T03:25:29.333Z,5.50
2018-04-17T03:28:32.681Z,5.50
2018-04-17T03:31:36.055Z,5.40
2018-04-17T03:34:39.398Z,5.40
2018-04-17T03:37:42.757Z,5.40
2018-04-17T03:40:46.109Z,5.40
2018-04-17T03:43:50.292Z,5.40
2018-04-17T03:46:53.723Z,5.30
2018-04-17T03:49:57.872Z,5.30
2018-04-17T03:53:01.251Z,5.30
2018-04-17T03:56:05.375Z,5.40
2018-04-17T03:59:09.573Z,5.30
2018-04-17T04:02:13.692Z,5.30
2018-04-17T04:05:17.829Z,5.40
2018-04-17T04:08:21.233Z,5.30
2018-04-17T04:11:24.605Z,5.40
2018-04-17T04:14:28.731Z,5.40
2018-04-17T04:17:50.580Z,5.40
2018-04-17T04:21:11.832Z,5.40
2018-04-17T04:24:32.905Z,5.40
2018-04-17T04:27:36.429Z,5.30
2018-04-17T04:30:39.779Z,5.40
2018-04-17T04:33:43.210Z,5.40
2018-04-17T04:36:46.581Z,5.40
2018-04-17T04:39:49.950Z,5.50
2018-04-17T04:42:53.304Z,5.50
2018-04-17T04:45:57.437Z,5.50
2018-04-17T04:49:00.817Z,5.50
2018-04-17T04:52:05.010Z,5.60
2018-04-17T04:55:08.389Z,5.60
2018-04-17T04:58:11.981Z,5.60
2018-04-17T05:01:15.353Z,5.70
2018-04-17T05:04:18.732Z,5.60
2018-04-17T05:07:22.862Z,5.70
2018-04-17T05:10:26.211Z,5.80
2018-04-17T05:13:29.729Z,5.80
2018-04-17T05:16:33.104Z,5.90
2018-04-17T05:19:36.464Z,5.90
2018-04-17T05:22:39.817Z,6.00
2018-04-17T05:25:43.210Z,6.00
2018-04-17T05:28:46.609Z,6.20
2018-04-17T05:31:49.996Z,6.20
2018-04-17T05:34:53.412Z,6.30
2018-04-17T05:37:56.794Z,6.40
2018-04-17T05:41:00.259Z,6.50
2018-04-17T05:44:04.560Z,6.60
2018-04-17T05:47:07.988Z,6.60
2018-04-17T05:50:11.420Z,6.70
2018-04-17T05:53:15.512Z,6.90
2018-04-17T05:56:19.000Z,6.90
2018-04-17T05:59:22.419Z,7.00
2018-04-17T06:02:25.906Z,7.10
2018-04-17T06:05:29.263Z,7.30
2018-04-17T06:08:32.624Z,7.40
2018-04-17T06:11:35.986Z,7.60
2018-04-17T06:14:40.184Z,7.90
2018-04-17T06:17:43.627Z,7.90
2018-04-17T06:20:46.994Z,8.10
2018-04-17T06:23:51.333Z,8.40
2018-04-17T06:26:55.642Z,8.60
2018-04-17T06:29:59.776Z,8.80
2018-04-17T06:33:03.894Z,8.90
2018-04-17T06:36:07.420Z,9.00
2018-04-17T06:39:10.833Z,9.10
2018-04-17T06:42:14.272Z,9.30
2018-04-17T06:45:17.750Z,9.30
2018-04-17T06:48:21.100Z,9.50
2018-04-17T06:51:24.457Z,9.60
2018-04-17T06:54:27.817Z,9.80
2018-04-17T06:57:31.181Z,9.90
2018-04-17T07:00:35.311Z,10.20
2018-04-17T07:03:38.670Z,10.20
2018-04-17T07:06:42.106Z,10.40
2018-04-17T07:09:46.224Z,10.80
2018-04-17T07:12:50.373Z,10.90
2018-04-17T07:15:53.745Z,10.90
2018-04-17T07:18:57.988Z,11.20
2018-04-17T07:22:01.376Z,11.20
2018-04-17T07:25:04.730Z,11.30
2018-04-17T07:28:08.106Z,11.40
2018-04-17T07:31:11.514Z,11.50
2018-04-17T07:34:14.953Z,11.70
2018-04-17T07:37:19.188Z,11.60
2018-04-17T07:40:23.236Z,11.60
2018-04-17T07:43:26.616Z,11.80
2018-04-17T07:46:30.119Z,11.90
2018-04-17T07:49:33.505Z,11.90
2018-04-17T07:52:36.893Z,12.10
2018-04-17T07:55:41.029Z,12.40
2018-04-17T07:58:44.382Z,12.40
2018-04-17T08:01:47.752Z,12.60
2018-04-17T08:04:51.113Z,12.50
2018-04-17T08:07:54.640Z,12.70
2018-04-17T08:10:57.999Z,12.90
2018-04-17T08:14:02.256Z,12.90
2018-04-17T08:17:05.726Z,12.90
2018-04-17T08:20:09.868Z,13.10
2018-04-17T08:23:13.236Z,13.00
2018-04-17T08:26:17.370Z,13.20
2018-04-17T08:29:20.728Z,13.10
2018-04-17T08:32:24.097Z,13.20
2018-04-17T08:35:27.455Z,13.20
2018-04-17T08:38:31.594Z,13.10
2018-04-17T08:41:34.950Z,13.10
2018-04-17T08:44:38.313Z,13.20
2018-04-17T08:47:41.672Z,13.40
2018-04-17T08:50:45.796Z,13.60
2018-04-17T08:53:49.945Z,13.60
2018-04-17T08:56:53.424Z,13.60
2018-04-17T08:59:56.999Z,13.70
2018-04-17T09:03:00.441Z,13.90
2018-04-17T09:06:03.826Z,14.00
2018-04-17T09:09:07.195Z,14.00
2018-04-17T09:12:10.563Z,14.00
2018-04-17T09:15:13.955Z,13.80
2018-04-17T09:18:17.310Z,14.10
2018-04-17T09:21:21.445Z,14.20
2018-04-17T09:24:24.997Z,14.20
2018-04-17T09:27:29.148Z,14.40
2018-04-17T09:30:33.288Z,14.50
2018-04-17T09:33:36.692Z,14.50
2018-04-17T09:36:40.052Z,14.60
2018-04-17T09:39:43.425Z,14.50
2018-04-17T09:42:46.790Z,14.10
2018-04-17T09:45:50.407Z,14.10
2018-04-17T09:48:53.787Z,14.00
2018-04-17T09:51:57.191Z,14.00
2018-04-17T09:55:00.660Z,14.10
2018-04-17T09:58:04.791Z,14.10
2018-04-17T10:01:21.630Z,14.10
2018-04-17T10:04:25.002Z,14.10
2018-04-17T10:07:29.164Z,14.60
2018-04-17T10:10:32.581Z,14.60
2018-04-17T10:13:35.953Z,14.70
2018-04-17T10:16:39.347Z,15.00
2018-04-17T10:19:42.722Z,15.00
2018-04-17T10:22:46.856Z,15.20
2018-04-17T10:25:50.220Z,15.20
2018-04-17T10:28:53.589Z,15.40
2018-04-17T10:31:56.962Z,15.60
2018-04-17T10:35:00.347Z,16.00
2018-04-17T10:38:03.704Z,15.90
2018-04-17T10:41:07.160Z,16.10
2018-04-17T10:44:10.517Z,16.00
2018-04-17T10:47:14.861Z,15.70
2018-04-17T10:50:18.246Z,15.70
2018-04-17T10:53:22.395Z,15.60
2018-04-17T10:56:25.833Z,15.60
2018-04-17T10:59:29.255Z,15.90
2018-04-17T11:02:32.624Z,16.00
2018-04-17T11:05:35.974Z,16.30
2018-04-17T11:08:40.144Z,16.10
2018-04-17T11:11:43.505Z,16.10
2018-04-17T11:14:46.941Z,16.30
2018-04-17T11:17:50.316Z,16.40
2018-04-17T11:20:53.687Z,16.00
2018-04-17T11:23:57.845Z,16.00
2018-04-17T11:27:01.385Z,16.00
2018-04-17T11:30:05.919Z,16.00
2018-04-17T11:33:10.212Z,16.10
2018-04-17T11:36:13.593Z,16.20
2018-04-17T11:39:16.965Z,16.30
2018-04-17T11:42:20.330Z,16.10
2018-04-17T11:45:23.786Z,15.90
2018-04-17T11:48:27.169Z,16.00
2018-04-17T11:51:30.529Z,16.00
2018-04-17T11:54:33.900Z,16.20
2018-04-17T11:57:37.262Z,16.20
2018-04-17T12:00:40.660Z,16.70
2018-04-17T12:03:44.763Z,16.50
2018-04-17T12:06:48.153Z,16.50
2018-04-17T12:09:52.285Z,17.10
2018-04-17T12:12:56.434Z,16.90
2018-04-17T12:15:59.811Z,16.90
2018-04-17T12:19:03.312Z,17.00
2018-04-17T12:22:06.681Z,17.10
2018-04-17T12:25:10.110Z,16.80
2018-04-17T12:28:13.489Z,16.30
2018-04-17T12:31:16.861Z,16.50
2018-04-17T12:34:20.233Z,16.70
2018-04-17T12:37:23.600Z,16.80
2018-04-17T12:40:27.751Z,16.50
2018-04-17T12:43:31.111Z,16.50
2018-04-17T12:46:35.431Z,16.50
2018-04-17T12:49:39.579Z,17.00
2018-04-17T12:52:43.053Z,17.00
2018-04-17T12:55:47.324Z,17.30
2018-04-17T12:58:50.715Z,17.30
2018-04-17T13:01:54.090Z,17.00
2018-04-17T13:04:57.558Z,17.10
2018-04-17T13:08:00.920Z,16.60
2018-04-17T13:11:04.276Z,16.60
2018-04-17T13:14:08.391Z,16.50
2018-04-17T13:17:12.537Z,16.70
2018-04-17T13:20:15.872Z,16.70
2018-04-17T13:23:19.256Z,17.00
2018-04-17T13:26:22.601Z,17.30
2018-04-17T13:29:26.727Z,17.20
2018-04-17T13:32:30.869Z,17.10
2018-04-17T13:35:34.236Z,17.10
2018-04-17T13:38:38.373Z,16.90
2018-04-17T13:41:41.755Z,16.80
2018-04-17T13:44:45.886Z,16.80
2018-04-17T13:47:49.308Z,16.80
2018-04-17T13:50:52.660Z,16.90
2018-04-17T13:53:56.021Z,16.80
2018-04-17T13:56:59.563Z,17.10
2018-04-17T14:00:02.952Z,17.10
2018-04-17T14:03:06.316Z,17.00
2018-04-17T14:06:09.695Z,17.00
2018-04-17T14:09:13.069Z,17.10
2018-04-17T14:12:17.200Z,17.20
2018-04-17T14:15:20.593Z,17.10
2018-04-17T14:18:24.887Z,16.80
2018-04-17T14:21:28.308Z,16.80
2018-04-17T14:24:32.437Z,16.90
2018-04-17T14:27:35.806Z,16.90
2018-04-17T14:30:39.246Z,16.90
2018-04-17T14:33:42.700Z,16.60
2018-04-17T14:36:46.140Z,16.90
2018-04-17T14:39:49.515Z,17.10
2018-04-17T14:42:52.883Z,17.10
2018-04-17T14:45:56.280Z,17.00
2018-04-17T14:48:59.666Z,16.90
2018-04-17T14:52:03.041Z,17.10
2018-04-17T14:55:06.399Z,17.00
2018-04-17T14:58:09.778Z,17.30
2018-04-17T15:01:13.165Z,17.00
2018-04-17T15:04:16.575Z,16.80
2018-04-17T15:07:19.938Z,16.90
2018-04-17T15:10:23.317Z,16.90
2018-04-17T15:13:27.445Z,16.60
2018-04-17T15:16:31.581Z,16.60
2018-04-17T15:19:34.948Z,16.50
2018-04-17T15:22:39.109Z,16.90
2018-04-17T15:25:42.490Z,17.00
2018-04-17T15:28:45.864Z,17.40
2018-04-17T15:31:50.021Z,17.60
2018-04-17T15:34:53.532Z,17.60
2018-04-17T15:37:56.918Z,17.30
2018-04-17T15:41:00.310Z,17.10
2018-04-17T15:44:03.782Z,17.00
2018-04-17T15:47:07.946Z,17.00
2018-04-17T15:50:11.322Z,17.00
2018-04-17T15:53:14.693Z,17.00
2018-04-17T15:56:18.106Z,17.20
2018-04-17T15:59:22.366Z,17.10
2018-04-17T16:02:25.957Z,17.10
2018-04-17T16:05:29.325Z,16.80
2018-04-17T16:08:32.714Z,16.80
2018-04-17T16:11:36.125Z,17.00
2018-04-17T16:14:40.434Z,18.30
2018-04-17T16:17:44.211Z,18.30
2018-04-17T16:20:47.700Z,18.10
2018-04-17T16:23:51.103Z,17.60
2018-04-17T16:26:54.460Z,17.10
2018-04-17T16:29:58.699Z,16.70
2018-04-17T16:33:02.155Z,16.70
2018-04-17T16:36:05.610Z,16.50
2018-04-17T16:39:09.014Z,16.50
2018-04-17T16:42:12.415Z,16.20
2018-04-17T16:45:15.792Z,16.20
2018-04-17T16:48:19.919Z,16.30
2018-04-17T16:51:23.399Z,16.20
2018-04-17T16:54:27.558Z,16.20
2018-04-17T16:57:30.954Z,16.20
2018-04-17T17:00:34.354Z,16.20
2018-04-17T17:03:37.836Z,16.20
2018-04-17T17:06:42.005Z,16.00
2018-04-17T17:09:45.425Z,16.00
2018-04-17T17:12:48.889Z,15.90
2018-04-17T17:15:52.286Z,15.90
2018-04-17T17:18:55.696Z,15.80
2018-04-17T17:21:59.124Z,15.80
2018-04-17T17:25:03.285Z,15.70
2018-04-17T17:28:06.654Z,15.70
2018-04-17T17:31:10.803Z,15.70
2018-04-17T17:34:14.182Z,15.70
2018-04-17T17:37:18.335Z,15.70
2018-04-17T17:40:21.718Z,15.70
2018-04-17T17:43:25.237Z,15.70
2018-04-17T17:46:28.671Z,15.60
2018-04-17T17:49:32.062Z,15.60
2018-04-17T17:52:35.436Z,15.80
2018-04-17T17:55:38.818Z,15.80
2018-04-17T17:58:42.200Z,15.90
2018-04-17T18:01:46.331Z,15.80
2018-04-17T18:04:49.746Z,15.80
2018-04-17T18:07:53.110Z,15.70
2018-04-17T18:10:57.328Z,15.60
2018-04-17T18:14:01.555Z,15.50
2018-04-17T18:17:05.738Z,15.40
2018-04-17T18:20:09.072Z,15.40
2018-04-17T18:23:13.327Z,15.20
2018-04-17T18:26:16.749Z,15.20
2018-04-17T18:29:20.154Z,15.10
2018-04-17T18:32:23.714Z,15.00
2018-04-17T18:35:27.145Z,14.90
2018-04-17T18:38:30.529Z,14.80
2018-04-17T18:41:33.968Z,14.70
2018-04-17T18:44:37.432Z,14.60
2018-04-17T18:47:40.812Z,14.50
2018-04-17T18:50:44.197Z,14.30
2018-04-17T18:53:48.333Z,14.10
2018-04-17T18:56:51.710Z,14.10
2018-04-17T18:59:56.040Z,13.90
2018-04-17T19:03:00.170Z,13.80
2018-04-17T19:06:03.736Z,13.80
2018-04-17T19:09:07.113Z,13.70
2018-04-17T19:12:10.550Z,13.70
2018-04-17T19:15:14.739Z,13.60
2018-04-17T19:18:18.122Z,13.60
2018-04-17T19:21:21.514Z,13.50
2018-04-17T19:24:24.911Z,13.50
2018-04-17T19:27:28.295Z,13.40
2018-04-17T19:30:31.692Z,13.40
2018-04-17T19:33:35.076Z,13.40
2018-04-17T19:36:39.218Z,13.30
2018-04-17T19:39:42.638Z,13.20
2018-04-17T19:42:46.002Z,13.20
2018-04-17T19:45:49.376Z,13.20
2018-04-17T19:48:52.767Z,13.20
2018-04-17T19:51:56.134Z,13.20
2018-04-17T19:54:59.513Z,13.10
2018-04-17T19:58:02.915Z,13.10
2018-04-17T20:01:06.285Z,13.00
2018-04-17T20:04:10.444Z,12.90
2018-04-17T20:07:13.846Z,12.80
2018-04-17T20:10:17.225Z,12.80
2018-04-17T20:13:20.615Z,12.80
2018-04-17T20:16:23.990Z,12.80
2018-04-17T20:19:27.397Z,12.70
2018-04-17T20:22:31.541Z,12.50
2018-04-17T20:25:34.925Z,12.50
2018-04-17T20:28:39.071Z,12.30
2018-04-17T20:31:42.505Z,12.30
2018-04-17T20:34:45.866Z,12.20
2018-04-17T20:37:49.245Z,12.20
2018-04-17T20:40:53.485Z,12.10
2018-04-17T20:43:56.883Z,12.10
2018-04-17T20:47:00.248Z,12.10
2018-04-17T20:50:04.385Z,12.10
2018-04-17T20:53:07.796Z,12.10
2018-04-17T20:56:11.207Z,12.00
2018-04-17T20:59:14.566Z,12.00
2018-04-17T21:02:18.710Z,11.80
2018-04-17T21:05:22.082Z,11.80
2018-04-17T21:08:26.207Z,11.70
2018-04-17T21:11:30.351Z,11.60
2018-04-17T21:14:33.724Z,11.60
2018-04-17T21:17:37.930Z,11.60
2018-04-17T21:20:41.315Z,11.50
2018-04-17T21:23:44.691Z,11.50
2018-04-17T21:26:48.068Z,11.50
2018-04-17T21:29:51.465Z,11.50
2018-04-17T21:32:54.851Z,11.40
2018-04-17T21:35:59.041Z,11.40
2018-04-17T21:39:02.408Z,11.30
2018-04-17T21:42:05.879Z,11.30
2018-04-17T21:45:09.310Z,11.30
2018-04-17T21:48:12.694Z,11.30
2018-04-17T21:51:16.069Z,11.20
2018-04-17T21:54:19.529Z,11.20
2018-04-17T21:57:22.867Z,11.20
2018-04-17T22:00:26.275Z,11.20
2018-04-17T22:03:29.639Z,11.20
2018-04-17T22:06:33.021Z,11.10
2018-04-17T22:09:36.405Z,11.10
2018-04-17T22:12:39.818Z,11.10
2018-04-17T22:15:43.199Z,11.10
2018-04-17T22:18:46.562Z,11.20
2018-04-17T22:21:50.804Z,11.10
2018-04-17T22:24:54.212Z,11.10
2018-04-17T22:27:57.583Z,11.20
2018-04-17T22:31:01.706Z,11.10
2018-04-17T22:34:05.090Z,11.10
2018-04-17T22:37:09.253Z,11.10
2018-04-17T22:40:12.617Z,11.10
2018-04-17T22:43:16.760Z,11.10
2018-04-17T22:46:20.175Z,11.10
2018-04-17T22:49:23.590Z,11.10
2018-04-17T22:52:27.041Z,11.00
2018-04-17T22:55:30.412Z,11.00
2018-04-17T22:58:33.896Z,11.00
2018-04-17T23:01:37.256Z,11.00
2018-04-17T23:04:40.633Z,11.00
2018-04-17T23:07:44.764Z,10.90
2018-04-17T23:10:48.121Z,10.90
2018-04-17T23:13:51.494Z,10.90
2018-04-17T23:16:54.849Z,11.00
2018-04-17T23:19:58.984Z,11.00
2018-04-17T23:23:02.345Z,11.00
2018-04-17T23:26:06.478Z,10.90
2018-04-17T23:29:10.622Z,10.90
2018-04-17T23:32:14.026Z,10.90
2018-04-17T23:35:17.385Z,10.90
2018-04-17T23:38:21.801Z,10.70
2018-04-17T23:41:25.236Z,10.70
2018-04-17T23:44:28.677Z,10.70
2018-04-17T23:47:32.056Z,10.70
2018-04-17T23:50:35.486Z,10.70
2018-04-17T23:53:39.748Z,10.70
2018-04-17T23:56:44.054Z,10.70
2018-04-17T23:59:48.207Z,10.70
